createdAt,value
2018-07-24T00:00:36.265Z,86.47
2018-07-24T00:01:36.261Z,87.27
2018-07-24T00:02:36.231Z,86.77
2018-07-24T00:03:36.220Z,86.27
2018-07-24T00:04:36.207Z,87.18
2018-07-24T00:05:36.203Z,86.77
2018-07-24T00:06:36.209Z,86.47
2018-07-24T00:07:36.178Z,86.87
2018-07-24T00:08:36.173Z,86.67
2018-07-24T00:09:36.153Z,86.47
2018-07-24T00:10:36.145Z,86.57
2018-07-24T00:11:36.160Z,86.77
2018-07-24T00:12:36.143Z,86.87
2018-07-24T00:13:36.109Z,86.77
2018-07-24T00:14:36.102Z,86.97
2018-07-24T00:15:36.092Z,86.77
2018-07-24T00:16:36.102Z,86.87
2018-07-24T00:17:36.073Z,86.36
2018-07-24T00:18:36.060Z,86.47
2018-07-24T00:19:36.050Z,86.57
2018-07-24T00:20:36.041Z,86.57
2018-07-24T00:21:36.034Z,86.36
2018-07-24T00:22:36.035Z,86.27
2018-07-24T00:23:36.004Z,85.22
2018-07-24T00:24:35.991Z,86.43
2018-07-24T00:25:35.987Z,85.72
2018-07-24T00:26:35.974Z,85.52
2018-07-24T00:27:35.980Z,86.33
2018-07-24T00:28:35.947Z,86.07
2018-07-24T00:29:35.943Z,85.42
2018-07-24T00:30:35.931Z,86.02
2018-07-24T00:31:35.923Z,86.02
2018-07-24T00:32:35.940Z,86.43
2018-07-24T00:33:35.898Z,86.22
2018-07-24T00:34:35.884Z,86.47
2018-07-24T00:35:35.873Z,86.47
2018-07-24T00:36:35.894Z,86.87
2018-07-24T00:37:35.885Z,86.77
2018-07-24T00:38:35.846Z,87.07
2018-07-24T00:39:35.833Z,87.12
2018-07-24T00:40:35.821Z,87.12
2018-07-24T00:41:35.806Z,87.01
2018-07-24T00:42:35.798Z,87.62
2018-07-24T00:43:35.809Z,88.02
2018-07-24T00:44:35.781Z,88.47
2018-07-24T00:45:35.765Z,88.06
2018-07-24T00:46:35.755Z,88.06
2018-07-24T00:47:35.785Z,88.43
2018-07-24T00:48:35.749Z,88.32
2018-07-24T00:49:35.735Z,88.37
2018-07-24T00:50:35.713Z,88.77
2018-07-24T00:51:35.703Z,88.06
2018-07-24T00:52:35.694Z,88.67
2018-07-24T00:53:35.707Z,88.47
2018-07-24T00:54:35.668Z,88.57
2018-07-24T00:55:35.657Z,88.67
2018-07-24T00:56:35.643Z,88.77
2018-07-24T00:57:35.640Z,88.97
2018-07-24T00:58:35.627Z,89.07
2018-07-24T00:59:35.633Z,89.32
2018-07-24T01:00:35.601Z,89.37
2018-07-24T01:01:35.604Z,88.87
2018-07-24T01:02:35.593Z,89.07
2018-07-24T01:03:35.576Z,88.67
2018-07-24T01:04:35.589Z,87.72
2018-07-24T01:05:35.547Z,88.23
2018-07-24T01:06:35.538Z,87.82
2018-07-24T01:07:35.534Z,88.12
2018-07-24T01:08:35.542Z,87.72
2018-07-24T01:09:35.540Z,86.91
2018-07-24T01:10:35.500Z,87.62
2018-07-24T01:11:35.487Z,88.02
2018-07-24T01:12:35.478Z,88.08
2018-07-24T01:13:35.460Z,86.91
2018-07-24T01:14:35.454Z,86.91
2018-07-24T01:15:35.464Z,87.72
2018-07-24T01:16:35.480Z,87.01
2018-07-24T01:17:35.420Z,88.02
2018-07-24T01:18:35.440Z,87.52
2018-07-24T01:19:35.398Z,88.32
2018-07-24T01:20:35.414Z,88.02
2018-07-24T01:21:35.381Z,88.32
2018-07-24T01:22:35.370Z,87.76
2018-07-24T01:23:35.357Z,88.26
2018-07-24T01:24:35.348Z,88.02
2018-07-24T01:25:35.330Z,88.83
2018-07-24T01:26:35.342Z,88.57
2018-07-24T01:27:35.311Z,88.37
2018-07-24T01:28:35.297Z,88.47
2018-07-24T01:29:35.296Z,89.07
2018-07-24T01:30:35.281Z,89.22
2018-07-24T01:31:35.289Z,89.17
2018-07-24T01:32:35.256Z,89.12
2018-07-24T01:33:35.252Z,89.42
2018-07-24T01:34:35.249Z,89.22
2018-07-24T01:35:35.227Z,89.62
2018-07-24T01:36:35.246Z,89.83
2018-07-24T01:37:35.209Z,89.42
2018-07-24T01:38:35.193Z,90.33
2018-07-24T01:39:35.182Z,90.03
2018-07-24T01:40:35.169Z,90.12
2018-07-24T01:41:35.186Z,90.12
2018-07-24T01:42:35.152Z,90.78
2018-07-24T01:43:35.142Z,90.27
2018-07-24T01:44:35.133Z,90.78
2018-07-24T01:45:35.114Z,90.27
2018-07-24T01:46:35.124Z,91.69
2018-07-24T01:47:35.097Z,90.88
2018-07-24T01:48:35.089Z,90.47
2018-07-24T01:49:35.072Z,90.88
2018-07-24T01:50:35.063Z,90.47
2018-07-24T01:51:35.077Z,90.47
2018-07-24T01:52:35.039Z,90.47
2018-07-24T01:53:35.034Z,90.23
2018-07-24T01:54:35.037Z,90.27
2018-07-24T01:55:35.035Z,90.27
2018-07-24T01:56:35.007Z,90.73
2018-07-24T01:57:35.007Z,90.88
2018-07-24T01:58:34.976Z,90.37
2018-07-24T01:59:34.967Z,90.78
2018-07-24T02:00:34.960Z,89.87
2018-07-24T02:01:34.959Z,89.83
2018-07-24T02:02:34.957Z,90.47
2018-07-24T02:03:34.925Z,90.33
2018-07-24T02:04:34.935Z,89.26
2018-07-24T02:05:34.903Z,90.33
2018-07-24T02:06:34.892Z,90.07
2018-07-24T02:07:34.881Z,90.17
2018-07-24T02:08:34.874Z,90.58
2018-07-24T02:09:34.855Z,90.27
2018-07-24T02:10:34.868Z,90.37
2018-07-24T02:11:34.839Z,90.88
2018-07-24T02:12:34.835Z,90.47
2018-07-24T02:13:34.816Z,90.78
2018-07-24T02:14:34.800Z,90.88
2018-07-24T02:15:34.808Z,90.67
2018-07-24T02:16:34.782Z,90.58
2018-07-24T02:17:34.774Z,90.92
2018-07-24T02:18:34.764Z,91.38
2018-07-24T02:19:34.749Z,90.92
2018-07-24T02:20:34.766Z,91.02
2018-07-24T02:21:34.729Z,91.53
2018-07-24T02:22:34.726Z,91.22
2018-07-24T02:23:34.709Z,90.72
2018-07-24T02:24:34.697Z,91.22
2018-07-24T02:25:34.696Z,91.53
2018-07-24T02:26:34.689Z,90.52
2018-07-24T02:27:34.660Z,91.08
2018-07-24T02:28:34.650Z,91.22
2018-07-24T02:29:34.642Z,91.42
2018-07-24T02:30:34.634Z,90.82
2018-07-24T02:31:34.641Z,91.53
2018-07-24T02:32:34.609Z,91.63
2018-07-24T02:33:34.600Z,91.53
2018-07-24T02:34:34.583Z,91.53
2018-07-24T02:35:34.579Z,91.02
2018-07-24T02:36:34.585Z,91.53
2018-07-24T02:37:34.562Z,91.63
2018-07-24T02:38:34.551Z,91.32
2018-07-24T02:39:34.529Z,91.42
2018-07-24T02:40:34.527Z,91.77
2018-07-24T02:41:34.546Z,91.97
2018-07-24T02:42:34.508Z,92.18
2018-07-24T02:43:34.492Z,91.77
2018-07-24T02:44:34.485Z,92.79
2018-07-24T02:45:34.467Z,92.99
2018-07-24T02:46:34.472Z,92.18
2018-07-24T02:47:34.442Z,91.97
2018-07-24T02:48:34.434Z,92.28
2018-07-24T02:49:34.425Z,93.08
2018-07-24T02:50:34.422Z,92.38
2018-07-24T02:51:34.430Z,91.97
2018-07-24T02:52:34.403Z,92.28
2018-07-24T02:53:34.381Z,92.79
2018-07-24T02:54:34.378Z,92.72
2018-07-24T02:55:34.363Z,93.03
2018-07-24T02:56:34.349Z,93.03
2018-07-24T02:57:34.380Z,93.63
2018-07-24T02:58:34.325Z,93.43
2018-07-24T02:59:34.319Z,93.43
2018-07-24T03:00:34.306Z,93.03
2018-07-24T03:01:34.296Z,94.24
2018-07-24T03:02:34.317Z,93.63
2018-07-24T03:03:34.322Z,93.84
2018-07-24T03:04:34.264Z,93.13
2018-07-24T03:05:34.250Z,93.54
2018-07-24T03:06:34.236Z,93.63
2018-07-24T03:07:34.234Z,93.13
2018-07-24T03:08:34.237Z,93.13
2018-07-24T03:09:34.206Z,92.99
2018-07-24T03:10:34.203Z,92.68
2018-07-24T03:11:34.184Z,92.58
2018-07-24T03:12:34.173Z,93.03
2018-07-24T03:13:34.193Z,92.93
2018-07-24T03:14:34.159Z,93.33
2018-07-24T03:15:34.147Z,93.84
2018-07-24T03:16:34.132Z,93.43
2018-07-24T03:17:34.127Z,93.94
2018-07-24T03:18:34.128Z,92.63
2018-07-24T03:19:34.095Z,92.93
2018-07-24T03:20:34.088Z,92.93
2018-07-24T03:21:34.077Z,93.48
2018-07-24T03:22:34.071Z,93.74
2018-07-24T03:23:34.079Z,93.74
2018-07-24T03:24:34.049Z,93.99
2018-07-24T03:25:34.035Z,93.74
2018-07-24T03:26:34.035Z,94.39
2018-07-24T03:27:34.015Z,93.68
2018-07-24T03:28:34.031Z,94.79
2018-07-24T03:29:34.007Z,94.45
2018-07-24T03:30:33.980Z,94.14
2018-07-24T03:31:33.968Z,93.84
2018-07-24T03:32:33.974Z,93.94
2018-07-24T03:33:33.967Z,93.43
2018-07-24T03:34:33.978Z,93.03
2018-07-24T03:35:33.927Z,93.63
2018-07-24T03:36:33.917Z,94.14
2018-07-24T03:37:33.901Z,93.94
2018-07-24T03:38:33.899Z,93.84
2018-07-24T03:39:33.937Z,93.84
2018-07-24T03:40:33.873Z,94.24
2018-07-24T03:41:33.870Z,93.63
2018-07-24T03:42:33.849Z,93.74
2018-07-24T03:43:33.837Z,94.35
2018-07-24T03:44:33.826Z,93.54
2018-07-24T03:45:33.839Z,94.24
2018-07-24T03:46:33.816Z,94.04
2018-07-24T03:47:33.798Z,93.84
2018-07-24T03:48:33.785Z,93.54
2018-07-24T03:49:33.774Z,94.14
2018-07-24T03:50:33.779Z,93.74
2018-07-24T03:51:33.805Z,93.84
2018-07-24T03:52:33.739Z,93.63
2018-07-24T03:53:33.743Z,93.74
2018-07-24T03:54:33.764Z,94.45
2018-07-24T03:55:33.732Z,93.63
2018-07-24T03:56:33.695Z,93.74
2018-07-24T03:57:33.689Z,94.85
2018-07-24T03:58:33.678Z,94.75
2018-07-24T03:59:33.669Z,94.24
2018-07-24T04:00:33.657Z,94.85
2018-07-24T04:01:33.690Z,94.04
2018-07-24T04:02:33.629Z,93.54
2018-07-24T04:03:33.616Z,94.35
2018-07-24T04:04:33.609Z,94.45
2018-07-24T04:05:33.606Z,93.74
2018-07-24T04:06:33.617Z,93.84
2018-07-24T04:07:33.582Z,94.85
2018-07-24T04:08:33.568Z,93.74
2018-07-24T04:09:33.555Z,93.94
2018-07-24T04:10:33.540Z,93.74
2018-07-24T04:11:33.549Z,93.63
2018-07-24T04:12:33.548Z,94.04
2018-07-24T04:13:33.509Z,94.35
2018-07-24T04:14:33.501Z,93.74
2018-07-24T04:15:33.502Z,94.04
2018-07-24T04:16:33.487Z,94.75
2018-07-24T04:17:33.509Z,94.04
2018-07-24T04:18:33.461Z,94.45
2018-07-24T04:19:33.488Z,94.45
2018-07-24T04:20:33.444Z,94.35
2018-07-24T04:21:33.426Z,94.35
2018-07-24T04:22:33.444Z,94.14
2018-07-24T04:23:33.408Z,94.60
2018-07-24T04:24:33.407Z,94.35
2018-07-24T04:25:33.383Z,93.49
2018-07-24T04:26:33.374Z,93.49
2018-07-24T04:27:33.384Z,93.49
2018-07-24T04:28:33.347Z,93.70
2018-07-24T04:29:33.339Z,93.29
2018-07-24T04:30:33.342Z,93.49
2018-07-24T04:31:33.322Z,93.84
2018-07-24T04:32:33.313Z,93.70
2018-07-24T04:33:33.317Z,92.79
2018-07-24T04:34:33.281Z,93.79
2018-07-24T04:35:33.269Z,94.00
2018-07-24T04:36:33.261Z,92.99
2018-07-24T04:37:33.252Z,93.39
2018-07-24T04:38:33.261Z,92.48
2018-07-24T04:39:33.232Z,93.29
2018-07-24T04:40:33.225Z,92.68
2018-07-24T04:41:33.206Z,93.24
2018-07-24T04:42:33.196Z,93.85
2018-07-24T04:43:33.227Z,93.65
2018-07-24T04:44:33.176Z,92.88
2018-07-24T04:45:33.162Z,93.85
2018-07-24T04:46:33.150Z,93.35
2018-07-24T04:47:33.141Z,92.74
2018-07-24T04:48:33.151Z,93.04
2018-07-24T04:49:33.144Z,91.93
2018-07-24T04:50:33.114Z,90.98
2018-07-24T04:51:33.110Z,91.28
2018-07-24T04:52:33.093Z,91.34
2018-07-24T04:53:33.090Z,90.53
2018-07-24T04:54:33.087Z,90.23
2018-07-24T04:55:33.052Z,90.23
2018-07-24T04:56:33.042Z,90.94
2018-07-24T04:57:33.045Z,90.83
2018-07-24T04:58:33.027Z,90.43
2018-07-24T04:59:33.062Z,91.34
2018-07-24T05:00:33.021Z,91.34
2018-07-24T05:01:33.005Z,90.63
2018-07-24T05:02:33.042Z,90.53
2018-07-24T05:03:32.989Z,90.83
2018-07-24T05:04:32.965Z,90.79
2018-07-24T05:05:32.965Z,90.69
2018-07-24T05:06:32.941Z,89.98
2018-07-24T05:07:32.949Z,90.69
2018-07-24T05:08:32.913Z,90.79
2018-07-24T05:09:32.912Z,89.17
2018-07-24T05:10:32.927Z,89.48
2018-07-24T05:11:32.889Z,89.43
2018-07-24T05:12:32.883Z,90.45
2018-07-24T05:13:32.859Z,90.04
2018-07-24T05:14:32.848Z,90.14
2018-07-24T05:15:32.864Z,90.45
2018-07-24T05:16:32.846Z,89.13
2018-07-24T05:17:32.819Z,89.23
2018-07-24T05:18:32.803Z,90.24
2018-07-24T05:19:32.793Z,88.63
2018-07-24T05:20:32.815Z,89.23
2018-07-24T05:21:32.776Z,89.64
2018-07-24T05:22:32.766Z,90.04
2018-07-24T05:23:32.773Z,89.09
2018-07-24T05:24:32.746Z,86.77
2018-07-24T05:25:32.730Z,88.45
2018-07-24T05:26:32.737Z,88.24
2018-07-24T05:27:32.706Z,86.22
2018-07-24T05:28:32.699Z,88.65
2018-07-24T05:29:32.693Z,87.94
2018-07-24T05:30:32.682Z,88.00
2018-07-24T05:31:32.697Z,86.58
2018-07-24T05:32:32.656Z,86.29
2018-07-24T05:33:32.649Z,84.47
2018-07-24T05:34:32.639Z,87.85
2018-07-24T05:35:32.645Z,86.24
2018-07-24T05:36:32.620Z,85.14
2018-07-24T05:37:32.621Z,85.24
2018-07-24T05:38:32.590Z,84.29
2018-07-24T05:39:32.589Z,85.60
2018-07-24T05:40:32.570Z,86.51
2018-07-24T05:41:32.564Z,85.50
2018-07-24T05:42:32.575Z,84.49
2018-07-24T05:43:32.547Z,85.50
2018-07-24T05:44:32.530Z,86.10
2018-07-24T05:45:32.519Z,85.50
2018-07-24T05:46:32.504Z,86.36
2018-07-24T05:47:32.530Z,84.95
2018-07-24T05:48:32.532Z,84.95
2018-07-24T05:49:32.474Z,86.16
2018-07-24T05:50:32.460Z,85.66
2018-07-24T05:51:32.450Z,84.55
2018-07-24T05:52:32.445Z,84.15
2018-07-24T05:53:32.456Z,84.05
2018-07-24T05:54:32.473Z,83.75
2018-07-24T05:55:32.413Z,83.14
2018-07-24T05:56:32.409Z,83.61
2018-07-24T05:57:32.400Z,84.51
2018-07-24T05:58:32.390Z,85.62
2018-07-24T05:59:32.360Z,84.91
2018-07-24T06:00:32.356Z,83.17
2018-07-24T06:01:32.350Z,82.86
2018-07-24T06:02:32.348Z,79.54
2018-07-24T06:03:32.341Z,81.32
2018-07-24T06:04:32.308Z,82.82
2018-07-24T06:05:32.300Z,83.09
2018-07-24T06:06:32.293Z,82.82
2018-07-24T06:07:32.280Z,82.78
2018-07-24T06:08:32.293Z,81.07
2018-07-24T06:09:32.258Z,81.48
2018-07-24T06:10:32.247Z,79.13
2018-07-24T06:11:32.234Z,78.22
2018-07-24T06:12:32.222Z,78.59
2018-07-24T06:13:32.214Z,77.48
2018-07-24T06:14:32.315Z,76.28
2018-07-24T06:15:32.194Z,78.39
2018-07-24T06:16:32.181Z,74.07
2018-07-24T06:17:32.234Z,75.14
2018-07-24T06:18:32.168Z,74.51
2018-07-24T06:19:32.168Z,75.31
2018-07-24T06:20:32.137Z,73.90
2018-07-24T06:21:32.144Z,73.10
2018-07-24T06:22:32.114Z,73.47
2018-07-24T06:23:32.123Z,73.07
2018-07-24T06:24:32.116Z,73.86
2018-07-24T06:25:32.086Z,77.98
2018-07-24T06:26:32.081Z,73.97
2018-07-24T06:27:32.076Z,72.36
2018-07-24T06:28:32.053Z,75.13
2018-07-24T06:29:32.038Z,72.03
2018-07-24T06:30:32.050Z,78.14
2018-07-24T06:31:32.027Z,73.03
2018-07-24T06:32:32.001Z,73.23
2018-07-24T06:33:31.998Z,73.39
2018-07-24T06:34:32.013Z,72.39
2018-07-24T06:35:32.037Z,71.80
2018-07-24T06:36:31.987Z,71.00
2018-07-24T06:37:31.969Z,70.89
2018-07-24T06:38:31.984Z,71.50
2018-07-24T06:39:32.022Z,72.06
2018-07-24T06:40:31.999Z,73.19
2018-07-24T06:41:31.911Z,71.76
2018-07-24T06:42:31.897Z,71.16
2018-07-24T06:43:31.885Z,73.76
2018-07-24T06:44:31.893Z,75.37
2018-07-24T06:45:31.868Z,71.46
2018-07-24T06:46:31.875Z,73.76
2018-07-24T06:47:31.845Z,70.62
2018-07-24T06:48:31.838Z,70.39
2018-07-24T06:49:31.819Z,69.49
2018-07-24T06:50:31.817Z,68.39
2018-07-24T06:51:31.848Z,69.99
2018-07-24T06:52:31.793Z,68.86
2018-07-24T06:53:31.778Z,69.26
2018-07-24T06:54:31.772Z,69.76
2018-07-24T06:55:31.757Z,68.66
2018-07-24T06:56:31.843Z,66.66
2018-07-24T06:57:31.739Z,64.93
2018-07-24T06:58:31.728Z,66.33
2018-07-24T06:59:31.751Z,67.13
2018-07-24T07:00:31.718Z,68.23
2018-07-24T07:01:31.719Z,70.79
2018-07-24T07:02:31.682Z,66.66
2018-07-24T07:03:31.746Z,66.30
2018-07-24T07:04:31.657Z,65.37
2018-07-24T07:05:31.663Z,65.97
2018-07-24T07:06:31.646Z,66.83
2018-07-24T07:07:31.700Z,66.53
2018-07-24T07:08:31.616Z,67.73
2018-07-24T07:09:31.623Z,63.54
2018-07-24T07:10:31.597Z,64.04
2018-07-24T07:11:31.597Z,62.15
2018-07-24T07:12:31.612Z,61.91
2018-07-24T07:13:31.593Z,66.70
2018-07-24T07:14:31.552Z,65.01
2018-07-24T07:15:31.544Z,62.31
2018-07-24T07:16:31.529Z,62.12
2018-07-24T07:17:31.550Z,61.99
2018-07-24T07:18:31.511Z,61.99
2018-07-24T07:19:31.500Z,61.49
2018-07-24T07:20:31.563Z,65.57
2018-07-24T07:21:31.475Z,63.08
2018-07-24T07:22:31.466Z,60.56
2018-07-24T07:23:31.584Z,61.85
2018-07-24T07:24:31.466Z,64.25
2018-07-24T07:25:31.472Z,59.17
2018-07-24T07:26:31.441Z,63.35
2018-07-24T07:27:31.442Z,62.15
2018-07-24T07:28:31.475Z,65.24
2018-07-24T07:29:31.396Z,68.93
2018-07-24T07:30:31.389Z,67.63
2018-07-24T07:31:31.375Z,66.53
2018-07-24T07:32:31.433Z,63.85
2018-07-24T07:33:31.381Z,61.93
2018-07-24T07:34:31.339Z,62.82
2018-07-24T07:35:31.326Z,65.51
2018-07-24T07:36:31.324Z,68.60
2018-07-24T07:37:31.310Z,62.82
2018-07-24T07:38:31.302Z,63.62
2018-07-24T07:39:31.313Z,60.93
2018-07-24T07:40:31.271Z,63.39
2018-07-24T07:41:31.297Z,66.38
2018-07-24T07:42:31.282Z,66.38
2018-07-24T07:43:31.249Z,67.77
2018-07-24T07:44:31.288Z,58.31
2018-07-24T07:45:31.217Z,64.78
2018-07-24T07:46:31.217Z,66.57
2018-07-24T07:47:31.213Z,61.47
2018-07-24T07:48:31.193Z,62.10
2018-07-24T07:49:31.186Z,57.42
2018-07-24T07:50:31.189Z,57.62
2018-07-24T07:51:31.222Z,56.79
2018-07-24T07:52:31.229Z,56.70
2018-07-24T07:53:31.134Z,58.88
2018-07-24T07:54:31.139Z,54.93
2018-07-24T07:55:31.135Z,54.21
2018-07-24T07:56:31.122Z,51.40
2018-07-24T07:57:31.091Z,51.50
2018-07-24T07:58:31.083Z,51.20
2018-07-24T07:59:31.074Z,53.46
2018-07-24T08:00:31.090Z,51.07
2018-07-24T08:01:31.057Z,51.84
2018-07-24T08:02:31.067Z,51.35
2018-07-24T08:03:31.033Z,55.02
2018-07-24T08:04:31.036Z,54.13
2018-07-24T08:05:31.008Z,50.75
2018-07-24T08:06:31.019Z,50.95
2018-07-24T08:07:30.990Z,53.33
2018-07-24T08:08:30.976Z,53.41
2018-07-24T08:09:30.974Z,56.51
2018-07-24T08:10:30.970Z,54.30
2018-07-24T08:11:30.971Z,54.80
2018-07-24T08:12:30.937Z,50.93
2018-07-24T08:13:30.954Z,52.81
2018-07-24T08:14:30.951Z,51.03
2018-07-24T08:15:30.926Z,54.97
2018-07-24T08:16:30.951Z,53.58
2018-07-24T08:17:30.880Z,56.16
2018-07-24T08:18:30.871Z,52.69
2018-07-24T08:19:30.861Z,50.88
2018-07-24T08:20:30.848Z,50.18
2018-07-24T08:21:30.881Z,54.02
2018-07-24T08:22:30.835Z,48.27
2018-07-24T08:23:30.822Z,47.36
2018-07-24T08:24:30.815Z,47.66
2018-07-24T08:25:30.798Z,49.81
2018-07-24T08:26:30.788Z,49.62
2018-07-24T08:27:30.816Z,49.59
2018-07-24T08:28:30.768Z,50.58
2018-07-24T08:29:30.761Z,50.66
2018-07-24T08:30:30.763Z,47.99
2018-07-24T08:31:30.736Z,50.13
2018-07-24T08:32:30.750Z,46.78
2018-07-24T08:33:30.761Z,44.58
2018-07-24T08:34:30.727Z,48.21
2018-07-24T08:35:30.698Z,46.04
2018-07-24T08:36:30.707Z,45.52
2018-07-24T08:37:30.709Z,45.72
2018-07-24T08:38:30.665Z,45.20
2018-07-24T08:39:30.656Z,46.98
2018-07-24T08:40:30.643Z,46.09
2018-07-24T08:41:30.639Z,45.79
2018-07-24T08:42:30.628Z,44.39
2018-07-24T08:43:30.633Z,41.83
2018-07-24T08:44:30.607Z,42.99
2018-07-24T08:45:30.633Z,46.74
2018-07-24T08:46:30.590Z,43.38
2018-07-24T08:47:30.593Z,47.82
2018-07-24T08:48:30.596Z,45.26
2018-07-24T08:49:30.563Z,48.51
2018-07-24T08:50:30.545Z,50.07
2018-07-24T08:51:30.535Z,45.85
2018-07-24T08:52:30.700Z,47.33
2018-07-24T08:53:30.839Z,45.83
2018-07-24T08:54:30.672Z,47.60
2018-07-24T08:55:30.977Z,47.09
2018-07-24T08:56:30.493Z,47.26
2018-07-24T08:57:30.473Z,44.40
2018-07-24T08:58:30.480Z,42.71
2018-07-24T08:59:30.497Z,41.14
2018-07-24T09:00:30.500Z,44.36
2018-07-24T09:01:30.434Z,44.44
2018-07-24T09:02:30.428Z,42.57
2018-07-24T09:03:30.449Z,45.13
2018-07-24T09:04:30.441Z,43.04
2018-07-24T09:05:30.438Z,42.65
2018-07-24T09:06:30.406Z,43.12
2018-07-24T09:07:30.381Z,39.07
2018-07-24T09:08:30.374Z,38.78
2018-07-24T09:09:30.367Z,38.17
2018-07-24T09:10:30.392Z,38.37
2018-07-24T09:11:30.341Z,38.06
2018-07-24T09:12:30.328Z,39.11
2018-07-24T09:13:30.326Z,39.98
2018-07-24T09:14:30.323Z,40.21
2018-07-24T09:15:30.357Z,41.80
2018-07-24T09:16:30.289Z,39.03
2018-07-24T09:17:30.289Z,38.84
2018-07-24T09:18:30.278Z,37.25
2018-07-24T09:19:30.265Z,41.86
2018-07-24T09:20:30.304Z,42.82
2018-07-24T09:21:30.254Z,40.55
2018-07-24T09:22:30.232Z,42.82
2018-07-24T09:23:30.228Z,37.02
2018-07-24T09:24:30.213Z,37.29
2018-07-24T09:25:30.215Z,38.76
2018-07-24T09:26:30.228Z,35.91
2018-07-24T09:27:30.193Z,39.04
2018-07-24T09:28:30.193Z,39.14
2018-07-24T09:29:30.173Z,36.12
2018-07-24T09:30:30.170Z,37.98
2018-07-24T09:31:30.189Z,39.92
2018-07-24T09:32:30.146Z,37.45
2018-07-24T09:33:30.130Z,35.99
2018-07-24T09:34:30.129Z,37.55
2018-07-24T09:35:30.114Z,35.77
2018-07-24T09:36:30.101Z,35.66
2018-07-24T09:37:30.116Z,37.43
2018-07-24T09:38:30.085Z,39.10
2018-07-24T09:39:30.085Z,40.19
2018-07-24T09:40:30.111Z,40.09
2018-07-24T09:41:30.051Z,37.16
2018-07-24T09:42:30.118Z,36.26
2018-07-24T09:43:30.048Z,40.76
2018-07-24T09:44:30.022Z,38.81
2018-07-24T09:45:30.019Z,39.29
2018-07-24T09:46:30.006Z,41.76
2018-07-24T09:47:30.034Z,40.29
2018-07-24T09:48:29.980Z,39.90
2018-07-24T09:49:29.993Z,40.17
2018-07-24T09:50:29.999Z,39.39
2018-07-24T09:51:29.955Z,37.04
2018-07-24T09:52:30.001Z,37.93
2018-07-24T09:53:29.977Z,35.50
2018-07-24T09:54:29.961Z,37.45
2018-07-24T09:55:29.913Z,37.37
2018-07-24T09:56:29.947Z,40.50
2018-07-24T09:57:29.895Z,43.84
2018-07-24T09:58:29.900Z,37.96
2018-07-24T09:59:29.873Z,40.90
2018-07-24T10:00:29.868Z,39.82
2018-07-24T10:01:29.847Z,40.70
2018-07-24T10:02:29.838Z,43.56
2018-07-24T10:03:29.854Z,42.13
2018-07-24T10:04:29.822Z,42.82
2018-07-24T10:05:29.903Z,39.00
2018-07-24T10:06:29.796Z,37.43
2018-07-24T10:07:29.796Z,45.68
2018-07-24T10:08:29.808Z,39.80
2018-07-24T10:09:29.774Z,39.90
2018-07-24T10:10:29.757Z,39.61
2018-07-24T10:11:29.747Z,45.88
2018-07-24T10:12:29.742Z,44.04
2018-07-24T10:13:29.732Z,41.98
2018-07-24T10:14:29.738Z,43.74
2018-07-24T10:15:29.703Z,42.76
2018-07-24T10:16:29.714Z,40.53
2018-07-24T10:17:29.688Z,41.90
2018-07-24T10:18:29.685Z,42.00
2018-07-24T10:19:29.691Z,40.03
2018-07-24T10:20:29.650Z,38.85
2018-07-24T10:21:29.647Z,41.11
2018-07-24T10:22:29.635Z,42.76
2018-07-24T10:23:29.624Z,39.84
2018-07-24T10:24:29.695Z,43.27
2018-07-24T10:25:29.602Z,41.80
2018-07-24T10:26:29.592Z,42.90
2018-07-24T10:27:29.582Z,43.29
2018-07-24T10:28:29.570Z,40.86
2018-07-24T10:29:29.583Z,45.77
2018-07-24T10:30:29.621Z,40.86
2018-07-24T10:31:29.550Z,39.47
2018-07-24T10:32:29.536Z,38.70
2018-07-24T10:33:29.535Z,44.18
2018-07-24T10:34:29.512Z,39.86
2018-07-24T10:35:29.524Z,42.29
2018-07-24T10:36:29.550Z,40.51
2018-07-24T10:37:29.480Z,41.00
2018-07-24T10:38:29.492Z,38.06
2018-07-24T10:39:29.461Z,40.78
2018-07-24T10:40:29.467Z,40.70
2018-07-24T10:41:29.467Z,41.88
2018-07-24T10:42:29.446Z,36.88
2018-07-24T10:43:29.432Z,38.06
2018-07-24T10:44:29.438Z,41.49
2018-07-24T10:45:29.435Z,39.41
2018-07-24T10:46:29.390Z,40.19
2018-07-24T10:47:29.380Z,38.72
2018-07-24T10:48:29.374Z,39.53
2018-07-24T10:49:29.361Z,39.94
2018-07-24T10:50:29.349Z,41.11
2018-07-24T10:51:29.360Z,39.94
2018-07-24T10:52:29.342Z,37.29
2018-07-24T10:53:29.349Z,37.96
2018-07-24T10:54:29.308Z,41.86
2018-07-24T10:55:29.296Z,37.25
2018-07-24T10:56:29.310Z,40.47
2018-07-24T10:57:29.282Z,36.65
2018-07-24T10:58:29.272Z,40.47
2018-07-24T10:59:29.257Z,34.51
2018-07-24T11:00:29.249Z,37.15
2018-07-24T11:01:29.232Z,38.53
2018-07-24T11:02:29.246Z,36.35
2018-07-24T11:03:29.214Z,43.70
2018-07-24T11:04:29.217Z,39.49
2018-07-24T11:05:29.211Z,35.47
2018-07-24T11:06:29.187Z,39.09
2018-07-24T11:07:29.194Z,34.49
2018-07-24T11:08:29.168Z,35.86
2018-07-24T11:09:29.154Z,36.96
2018-07-24T11:10:29.143Z,40.47
2018-07-24T11:11:29.131Z,41.17
2018-07-24T11:12:29.151Z,36.47
2018-07-24T11:13:29.119Z,36.18
2018-07-24T11:14:29.111Z,35.58
2018-07-24T11:15:29.099Z,37.45
2018-07-24T11:16:29.108Z,36.27
2018-07-24T11:17:29.077Z,38.31
2018-07-24T11:18:29.086Z,37.52
2018-07-24T11:19:29.053Z,43.68
2018-07-24T11:20:29.044Z,36.02
2018-07-24T11:21:29.034Z,35.63
2018-07-24T11:22:29.201Z,39.23
2018-07-24T11:23:29.034Z,36.20
2018-07-24T11:24:29.008Z,34.23
2018-07-24T11:25:28.994Z,36.28
2018-07-24T11:26:28.998Z,39.39
2018-07-24T11:27:29.018Z,34.68
2018-07-24T11:28:29.070Z,34.19
2018-07-24T11:29:28.968Z,34.38
2018-07-24T11:30:28.969Z,33.97
2018-07-24T11:31:28.947Z,33.17
2018-07-24T11:32:28.943Z,31.87
2018-07-24T11:33:28.997Z,32.82
2018-07-24T11:34:28.962Z,33.69
2018-07-24T11:35:28.999Z,32.10
2018-07-24T11:36:28.936Z,34.70
2018-07-24T11:37:28.901Z,34.48
2018-07-24T11:38:28.919Z,33.78
2018-07-24T11:39:28.891Z,34.33
2018-07-24T11:40:28.868Z,29.95
2018-07-24T11:41:28.872Z,34.41
2018-07-24T11:42:28.859Z,31.67
2018-07-24T11:43:28.860Z,28.07
2018-07-24T11:44:28.871Z,28.62
2018-07-24T11:45:28.875Z,29.88
2018-07-24T11:46:28.850Z,28.41
2018-07-24T11:47:28.821Z,31.04
2018-07-24T11:48:28.850Z,29.19
2018-07-24T11:49:28.810Z,29.30
2018-07-24T11:50:28.804Z,28.72
2018-07-24T11:51:28.832Z,31.81
2018-07-24T11:52:28.795Z,30.17
2018-07-24T11:53:28.783Z,29.88
2018-07-24T11:54:28.800Z,29.92
2018-07-24T11:55:28.763Z,30.26
2018-07-24T11:56:28.775Z,32.10
2018-07-24T11:57:28.742Z,31.89
2018-07-24T11:58:28.740Z,31.07
2018-07-24T11:59:28.776Z,29.88
2018-07-24T12:00:28.742Z,27.26
2018-07-24T12:01:28.757Z,29.80
2018-07-24T12:02:28.709Z,29.88
2018-07-24T12:03:28.731Z,28.50
2018-07-24T12:04:28.814Z,27.12
2018-07-24T12:05:28.687Z,28.29
2018-07-24T12:06:28.680Z,31.54
2018-07-24T12:07:28.671Z,31.46
2018-07-24T12:08:28.665Z,29.77
2018-07-24T12:09:28.711Z,28.29
2018-07-24T12:10:28.672Z,26.23
2018-07-24T12:11:28.668Z,30.82
2018-07-24T12:12:28.634Z,28.08
2018-07-24T12:13:28.634Z,32.42
2018-07-24T12:14:28.660Z,33.26
2018-07-24T12:15:28.643Z,30.92
2018-07-24T12:16:28.610Z,31.78
2018-07-24T12:17:28.600Z,30.00
2018-07-24T12:18:28.627Z,29.49
2018-07-24T12:19:28.629Z,30.58
2018-07-24T12:20:28.582Z,31.88
2018-07-24T12:21:28.610Z,29.25
2018-07-24T12:22:28.593Z,31.37
2018-07-24T12:23:28.589Z,28.36
2018-07-24T12:24:28.581Z,30.01
2018-07-24T12:25:28.559Z,30.82
2018-07-24T12:26:28.547Z,29.99
2018-07-24T12:27:28.545Z,30.52
2018-07-24T12:28:28.535Z,27.08
2018-07-24T12:29:28.522Z,31.07
2018-07-24T12:30:28.537Z,28.04
2018-07-24T12:31:28.533Z,28.49
2018-07-24T12:32:28.494Z,24.54
2018-07-24T12:33:28.480Z,26.27
2018-07-24T12:34:28.473Z,27.98
2018-07-24T12:35:28.487Z,26.35
2018-07-24T12:36:28.465Z,26.75
2018-07-24T12:37:28.467Z,23.37
2018-07-24T12:38:28.456Z,26.45
2018-07-24T12:39:28.434Z,26.25
2018-07-24T12:40:28.428Z,24.43
2018-07-24T12:41:28.423Z,26.83
2018-07-24T12:42:28.438Z,28.38
2018-07-24T12:43:28.516Z,26.05
2018-07-24T12:44:28.396Z,27.87
2018-07-24T12:45:28.401Z,23.24
2018-07-24T12:46:28.398Z,24.95
2018-07-24T12:47:28.406Z,22.35
2018-07-24T12:48:28.449Z,22.82
2018-07-24T12:49:28.369Z,26.56
2018-07-24T12:50:28.379Z,22.91
2018-07-24T12:51:28.358Z,22.58
2018-07-24T12:52:28.399Z,26.81